sensor_id;sensor_type;location;lat;lon;timestamp;temperature;humidity
24450;DHT22;13349;50.984;5.822;2023-04-24T00:01:08;9.70;1.00
24450;DHT22;13349;50.984;5.822;2023-04-24T00:03:36;9.70;1.00
24450;DHT22;13349;50.984;5.822;2023-04-24T00:06:04;9.60;1.00
24450;DHT22;13349;50.984;5.822;2023-04-24T00:08:32;9.60;1.00
24450;DHT22;13349;50.984;5.822;2023-04-24T00:10:59;9.60;1.00
24450;DHT22;13349;50.984;5.822;2023-04-24T00:13:26;9.60;1.00
24450;DHT22;13349;50.984;5.822;2023-04-24T00:15:53;9.70;1.00
24450;DHT22;13349;50.984;5.822;2023-04-24T00:18:22;9.60;3.70
24450;DHT22;13349;50.984;5.822;2023-04-24T00:20:49;9.60;1.00
24450;DHT22;13349;50.984;5.822;2023-04-24T00:23:15;9.60;34.10
24450;DHT22;13349;50.984;5.822;2023-04-24T00:25:42;9.50;12.00
24450;DHT22;13349;50.984;5.822;2023-04-24T00:28:09;9.50;1.00
24450;DHT22;13349;50.984;5.822;2023-04-24T00:30:36;9.50;90.80
24450;DHT22;13349;50.984;5.822;2023-04-24T00:33:03;9.40;99.90
24450;DHT22;13349;50.984;5.822;2023-04-24T00:35:31;9.40;99.90
24450;DHT22;13349;50.984;5.822;2023-04-24T00:37:58;9.40;99.90
24450;DHT22;13349;50.984;5.822;2023-04-24T00:40:25;9.40;99.90
24450;DHT22;13349;50.984;5.822;2023-04-24T00:42:53;9.40;99.90
24450;DHT22;13349;50.984;5.822;2023-04-24T00:45:21;9.40;99.90
24450;DHT22;13349;50.984;5.822;2023-04-24T00:47:48;9.40;99.90
24450;DHT22;13349;50.984;5.822;2023-04-24T00:50:15;9.40;99.90
24450;DHT22;13349;50.984;5.822;2023-04-24T00:52:44;9.50;99.90
24450;DHT22;13349;50.984;5.822;2023-04-24T00:55:11;9.40;99.90
24450;DHT22;13349;50.984;5.822;2023-04-24T00:57:37;9.40;99.90
24450;DHT22;13349;50.984;5.822;2023-04-24T01:00:05;9.40;99.90
24450;DHT22;13349;50.984;5.822;2023-04-24T01:02:36;9.40;99.90
24450;DHT22;13349;50.984;5.822;2023-04-24T01:05:06;9.40;1.00
24450;DHT22;13349;50.984;5.822;2023-04-24T01:07:33;9.40;1.00
24450;DHT22;13349;50.984;5.822;2023-04-24T01:10:01;9.40;1.00
24450;DHT22;13349;50.984;5.822;2023-04-24T01:12:28;9.40;1.00
24450;DHT22;13349;50.984;5.822;2023-04-24T01:14:55;9.40;1.00
24450;DHT22;13349;50.984;5.822;2023-04-24T01:17:22;9.40;1.00
24450;DHT22;13349;50.984;5.822;2023-04-24T01:19:49;9.40;1.00
24450;DHT22;13349;50.984;5.822;2023-04-24T01:22:20;9.40;1.00
24450;DHT22;13349;50.984;5.822;2023-04-24T01:24:47;9.40;1.00
24450;DHT22;13349;50.984;5.822;2023-04-24T01:27:14;9.30;1.00
24450;DHT22;13349;50.984;5.822;2023-04-24T01:29:41;9.30;1.00
24450;DHT22;13349;50.984;5.822;2023-04-24T01:32:09;9.30;1.00
24450;DHT22;13349;50.984;5.822;2023-04-24T01:34:36;9.30;1.00
24450;DHT22;13349;50.984;5.822;2023-04-24T01:37:03;9.30;1.00
24450;DHT22;13349;50.984;5.822;2023-04-24T01:39:32;9.30;1.00
24450;DHT22;13349;50.984;5.822;2023-04-24T01:41:59;9.40;1.00
24450;DHT22;13349;50.984;5.822;2023-04-24T01:44:27;9.40;1.00
24450;DHT22;13349;50.984;5.822;2023-04-24T01:46:54;9.40;1.00
24450;DHT22;13349;50.984;5.822;2023-04-24T01:49:21;9.30;1.00
24450;DHT22;13349;50.984;5.822;2023-04-24T01:51:48;9.30;1.00
24450;DHT22;13349;50.984;5.822;2023-04-24T01:54:15;9.30;1.00
24450;DHT22;13349;50.984;5.822;2023-04-24T01:56:43;9.30;1.00
24450;DHT22;13349;50.984;5.822;2023-04-24T22:54:02;7.60;1.00
24450;DHT22;13349;50.984;5.822;2023-04-24T22:56:29;7.60;1.00
24450;DHT22;13349;50.984;5.822;2023-04-24T22:58:57;7.60;1.00
24450;DHT22;13349;50.984;5.822;2023-04-24T23:01:23;7.50;1.00
24450;DHT22;13349;50.984;5.822;2023-04-24T23:03:51;7.60;1.00
24450;DHT22;13349;50.984;5.822;2023-04-24T23:06:18;7.60;1.00
24450;DHT22;13349;50.984;5.822;2023-04-24T23:08:46;7.50;1.00
24450;DHT22;13349;50.984;5.822;2023-04-24T23:11:14;7.50;1.00
24450;DHT22;13349;50.984;5.822;2023-04-24T23:13:41;7.50;1.00
24450;DHT22;13349;50.984;5.822;2023-04-24T23:16:08;7.50;1.00
24450;DHT22;13349;50.984;5.822;2023-04-24T23:18:35;7.40;1.00
24450;DHT22;13349;50.984;5.822;2023-04-24T23:21:02;7.40;1.00
24450;DHT22;13349;50.984;5.822;2023-04-24T23:23:29;7.30;1.00
24450;DHT22;13349;50.984;5.822;2023-04-24T23:25:56;7.30;1.00
24450;DHT22;13349;50.984;5.822;2023-04-24T23:28:25;7.30;1.00
24450;DHT22;13349;50.984;5.822;2023-04-24T23:30:52;7.20;1.00
24450;DHT22;13349;50.984;5.822;2023-04-24T23:33:19;7.10;1.00
24450;DHT22;13349;50.984;5.822;2023-04-24T23:35:46;7.10;1.00
24450;DHT22;13349;50.984;5.822;2023-04-24T23:38:13;7.00;43.20
24450;DHT22;13349;50.984;5.822;2023-04-24T23:40:40;7.00;99.90
24450;DHT22;13349;50.984;5.822;2023-04-24T23:43:07;7.00;99.90
24450;DHT22;13349;50.984;5.822;2023-04-24T23:45:35;7.20;39.40
24450;DHT22;13349;50.984;5.822;2023-04-24T23:48:02;7.30;1.00
24450;DHT22;13349;50.984;5.822;2023-04-24T23:50:30;7.20;1.00
24450;DHT22;13349;50.984;5.822;2023-04-24T23:52:56;7.20;1.00
24450;DHT22;13349;50.984;5.822;2023-04-24T23:55:23;7.20;1.00
24450;DHT22;13349;50.984;5.822;2023-04-24T23:57:50;7.20;1.00
